Observations for FALCONARA IT-AFB, Italy (LIPY)

LIPY 240850Z 32012KT 9999 FEW030 27/22 Q1018
LIPY 240750Z 32009KT 9999 FEW030 26/22 Q1018
LIPY 240650Z 29005KT 240V330 CAVOK 26/20 Q1017  
LIPY 240550Z 20004KT 170V230 CAVOK 23/18 Q1017  
LIPY 240450Z 18003KT CAVOK 20/17 Q1017  
LIPY 240350Z VRB02KT CAVOK 18/17 Q1017  
LIPY 240250Z 16002KT CAVOK 19/17 Q1017  
LIPY 240150Z 17002KT CAVOK 19/17 Q1017  
LIPY 240050Z 19003KT CAVOK 19/17 Q1017  
LIPY 232350Z 18003KT CAVOK 19/18 Q1016  
LIPY 232250Z VRB02KT CAVOK 20/18 Q1016  
LIPY 232150Z 16003KT CAVOK 20/18 Q1016  
LIPY 232050Z 16003KT 130V190 CAVOK 21/19 Q1016  
LIPY 231950Z VRB01KT CAVOK 23/19 Q1015  
LIPY 231850Z VRB01KT CAVOK 24/19 Q1015  
LIPY 231750Z 35004KT 320V030 9999 FEW050 25/19 Q1015
LIPY 231650Z 35008KT CAVOK 26/19 Q1014  
LIPY 231550Z 35010KT CAVOK 26/18 Q1014  
LIPY 231450Z 36010KT CAVOK 26/19 Q1014  
LIPY 231350Z 36011KT CAVOK 26/19 Q1015  
LIPY 231250Z 35011KT CAVOK 26/18 Q1015  
LIPY 231150Z 35011KT CAVOK 26/18 Q1015  
LIPY 231050Z 35010KT 320V020 9999 FEW030 26/20 Q1015
LIPY 230950Z 34010KT 9999 FEW035 25/19 Q1014
LIPY 230850Z 35010KT 9999 FEW030 24/19 Q1014